Terminal Aerodrome Forecast
Issued by NWS Raleigh/Durham, NC

Home | Current Version | Previous Version | Text Only | Print | Product List | Glossary On
Versions: 1 2 3 4 5 6 7 8 9 10 11 12 13 14 15 16 17 18 19 20
000
FTUS42 KRAH 262353 CCA
TAFFAY
TAF COR
KFAY 262353Z 2700/2724 16009KT P6SM SCT080 BKN250
      TEMPO 2700/2703 6SM -SHRA BKN050 OVC080
     FM271000 19004KT P6SM SCT030
      TEMPO 2711/2713 VRB03KT 2SM BR SCT012
     FM271400 21008KT P6SM BKN040=

USA.gov is the U.S. government's official web portal to all federal, state and local government web resources and services.